Medicine Hat, Alberta

4:11 AM MDT on September 19, 2014 (GMT -0600)
Medicine Hat | Change Station
CLOSE
Current Station
Airport
Location: Medicine Hat,
Elevation: 2352 ft
Nearby Weather Stations

Elev 2352 ft 50.02 °N, 110.72 °W | Updated 11 minutes ago

Partly Cloudy
Partly Cloudy
54 °F
Feels Like 54 °F
N
7
Wind Variable Wind from SSW

Today is forecast to be nearly the same temperature as yesterday.

Today
High -- | Low -- °F
--% Chance of Precip.
Yesterday
High -- | Low -- °F
Precip. -- in
7:04 AM 7:27 PM
Waning Crescent, 20% visible
Pressure 29.63 in
Visibility 9.0 miles
Clouds Few 11000 ft
Dew Point 48 °F
Humidity 82%
Rainfall 0.00 in
Snow Depth Not available.
UV 0 out of 12
Pollen Not available.
Air Quality Not available.
Flu Activity Not available.
METAR CYXH 191000Z AUTO 21006KT 9SM FEW110 12/09 A2964 RMK SLP033 DENSITY ALT 2900FT

More Conditions Fewer Conditions

Pressure 29.63 in
Visibility 9.0 miles
Clouds Few 11000 ft
Dew Point 48 °F
Humidity 82%
Rainfall 0.00 in
Snow Depth Not available.
UV 0 out of 12
Pollen Not available.
Air Quality Not available.
Flu Activity Not available.
METAR CYXH 191000Z AUTO 21006KT 9SM FEW110 12/09 A2964 RMK SLP033 DENSITY ALT 2900FT

More Conditions Fewer Conditions

10-Day Weather Forecast

Almanac

Astronomy

Sep. 19, 2014 Rise Set
Actual Time 7:04 AM MDT 7:27 PM MDT
Civil Twilight 6:32 AM MDT 7:59 PM MDT
Nautical Twilight 5:54 AM MDT 8:37 PM MDT
Astronomical Twilight 5:13 AM MDT 9:17 PM MDT
Moon 2:33 AM MDT 5:15 PM MDT
Length of Visible Light 13h 27m
Length of Day
12h 22m
Tomorrow will be 3m 42s shorter.
Waning Crescent, 20% of the Moon is Illuminated
Today
Waning Crescent
Sep 24
New
Oct 1
First Quarter
Oct 8
Full
Oct 15
Last Quarter

Yesterday's Extremes

Country Highs Country Lows

Community

WunderPhotos

Upload Photos

1,754,583 photos uploaded!

Nearby

Snow Depth

Not available.

Earthquake Activity

City Distance Mag. Time & Date
No recent earthquake activity has been reported nearby.
Minimum magnitude displayed is 2.5.

Coastal Water Temperatures

Place Temperature
No Stations Reporting

Nearby Weather Stations